createdAt,value
2023-09-18T00:02:18.620Z,98137.11
2023-09-18T00:04:46.790Z,98136.79
2023-09-18T00:07:15.794Z,98134.88
2023-09-18T00:09:43.807Z,98135.67
2023-09-18T00:12:11.920Z,98135.19
2023-09-18T00:14:39.997Z,98136.48
2023-09-18T00:17:08.071Z,98136.38
2023-09-18T00:19:36.217Z,98135.20
2023-09-18T00:22:04.437Z,98135.41
2023-09-18T00:24:32.958Z,98134.28
2023-09-18T00:27:01.027Z,98136.11
2023-09-18T00:29:29.107Z,98134.24
2023-09-18T00:31:57.330Z,98128.35
2023-09-18T00:34:25.423Z,98128.25
2023-09-18T00:36:53.520Z,98128.30
2023-09-18T00:39:22.154Z,98130.27
2023-09-18T00:41:55.145Z,98133.63
2023-09-18T00:44:23.451Z,98132.11
2023-09-18T00:46:52.818Z,98130.77
2023-09-18T00:49:21.533Z,98130.42
2023-09-18T00:51:51.209Z,98133.61
2023-09-18T00:54:20.892Z,98131.89
2023-09-18T00:56:55.303Z,98134.38
2023-09-18T00:59:23.554Z,98135.29
2023-09-18T01:01:52.104Z,98132.35
2023-09-18T01:04:21.510Z,98131.16
2023-09-18T01:06:50.499Z,98132.45
2023-09-18T01:09:19.588Z,98130.55
2023-09-18T01:12:10.809Z,98129.91
2023-09-18T01:14:45.961Z,98129.52
2023-09-18T01:17:15.276Z,98127.88
2023-09-18T01:19:48.366Z,98128.69
2023-09-18T01:22:19.215Z,98131.96
2023-09-18T01:24:49.383Z,98131.53
2023-09-18T01:27:19.738Z,98128.14
2023-09-18T01:29:49.152Z,98127.89
2023-09-18T01:32:17.584Z,98129.55
2023-09-18T01:34:51.803Z,98132.11
2023-09-18T01:37:23.911Z,98133.42
2023-09-18T01:39:53.859Z,98131.58
2023-09-18T01:42:21.986Z,98128.71
2023-09-18T01:44:54.410Z,98123.36
2023-09-18T01:47:28.467Z,98120.23
2023-09-18T01:49:56.781Z,98120.09
2023-09-18T01:52:24.965Z,98115.60
2023-09-18T01:54:53.101Z,98117.23
2023-09-18T01:57:21.301Z,98115.33
2023-09-18T01:59:49.449Z,98112.20
2023-09-18T02:02:24.682Z,98110.84
2023-09-18T02:05:06.930Z,98109.46
2023-09-18T02:07:37.426Z,98108.79
2023-09-18T02:10:06.645Z,98108.11
2023-09-18T02:12:34.833Z,98104.84
2023-09-18T02:15:07.731Z,98106.62
2023-09-18T02:17:36.192Z,98103.86
2023-09-18T02:20:06.206Z,98106.52
2023-09-18T02:22:34.451Z,98107.10
2023-09-18T02:25:02.601Z,98109.44
2023-09-18T02:27:30.775Z,98106.86
2023-09-18T02:29:58.900Z,98108.11
2023-09-18T02:32:27.102Z,98105.16
2023-09-18T02:34:55.776Z,98102.17
2023-09-18T02:37:25.314Z,98103.60
2023-09-18T02:39:53.442Z,98102.39
2023-09-18T02:42:21.743Z,98106.09
2023-09-18T02:44:49.721Z,98106.10
2023-09-18T02:47:19.368Z,98107.50
2023-09-18T02:49:47.618Z,98110.52
2023-09-18T02:52:16.223Z,98109.15
2023-09-18T02:54:44.431Z,98114.41
2023-09-18T02:57:12.614Z,98116.48
2023-09-18T02:59:40.861Z,98120.20
2023-09-18T03:02:09.039Z,98122.13
2023-09-18T03:04:37.519Z,98122.13
2023-09-18T03:07:06.587Z,98124.45
2023-09-18T03:09:34.608Z,98127.65
2023-09-18T03:12:03.530Z,98123.64
2023-09-18T03:14:31.767Z,98123.47
2023-09-18T03:17:00.143Z,98124.54
2023-09-18T03:19:28.305Z,98123.89
2023-09-18T03:21:56.869Z,98123.24
2023-09-18T03:24:24.932Z,98123.65
2023-09-18T03:26:53.078Z,98127.02
2023-09-18T03:29:21.259Z,98124.63
2023-09-18T03:31:49.740Z,98124.70
2023-09-18T03:34:18.934Z,98123.70
2023-09-18T03:36:47.452Z,98125.94
2023-09-18T03:39:15.674Z,98123.71
2023-09-18T03:41:43.826Z,98121.63
2023-09-18T03:44:12.138Z,98124.68
2023-09-18T03:46:40.286Z,98126.50
2023-09-18T03:49:08.950Z,98125.51
2023-09-18T03:51:38.752Z,98131.89
2023-09-18T03:54:07.025Z,98133.55
2023-09-18T03:56:35.142Z,98133.77
2023-09-18T03:59:03.376Z,98138.77
2023-09-18T04:01:31.795Z,98142.55
2023-09-18T04:04:00.144Z,98141.13
2023-09-18T04:06:38.059Z,98145.05
2023-09-18T04:09:06.223Z,98148.61
2023-09-18T04:11:34.581Z,98151.29
2023-09-18T04:14:04.504Z,98151.68
2023-09-18T04:16:36.571Z,98149.38
2023-09-18T04:19:04.992Z,98155.51
2023-09-18T04:21:33.155Z,98153.03
2023-09-18T04:24:01.194Z,98155.32
2023-09-18T04:26:32.681Z,98156.85
2023-09-18T04:29:02.130Z,98156.11
2023-09-18T04:31:32.538Z,98156.23
2023-09-18T04:34:01.630Z,98155.95
2023-09-18T04:36:30.093Z,98153.57
2023-09-18T04:38:58.280Z,98148.35
2023-09-18T04:41:26.406Z,98148.73
2023-09-18T04:43:56.571Z,98151.82
2023-09-18T04:46:26.217Z,98150.19
2023-09-18T04:48:55.003Z,98152.34
2023-09-18T04:51:23.526Z,98155.16
2023-09-18T04:53:53.307Z,98150.92
2023-09-18T04:56:22.097Z,98152.95
2023-09-18T04:58:50.944Z,98153.02
2023-09-18T05:01:20.491Z,98153.79
2023-09-18T05:03:50.613Z,98153.08
2023-09-18T05:06:19.322Z,98153.56
2023-09-18T05:08:47.697Z,98149.73
2023-09-18T05:11:15.978Z,98148.99
2023-09-18T05:13:44.020Z,98149.83
2023-09-18T05:16:12.186Z,98147.29
2023-09-18T05:18:42.261Z,98143.27
2023-09-18T05:21:10.930Z,98145.57
2023-09-18T05:23:39.294Z,98145.71
2023-09-18T05:26:07.543Z,98145.65
2023-09-18T05:28:35.616Z,98142.83
2023-09-18T05:31:03.692Z,98139.33
2023-09-18T05:33:31.928Z,98136.95
2023-09-18T05:36:00.151Z,98136.57
2023-09-18T05:38:28.483Z,98140.47
2023-09-18T05:40:56.727Z,98138.61
2023-09-18T05:43:24.993Z,98138.16
2023-09-18T05:45:53.142Z,98143.52
2023-09-18T05:48:21.572Z,98144.39
2023-09-18T05:50:49.780Z,98143.02
2023-09-18T05:53:18.133Z,98139.91
2023-09-18T05:55:46.709Z,98143.41
2023-09-18T05:58:15.441Z,98139.26
2023-09-18T06:00:44.126Z,98136.51
2023-09-18T06:03:13.895Z,98132.30
2023-09-18T06:05:42.353Z,98128.37
2023-09-18T06:08:10.663Z,98126.51
2023-09-18T06:10:39.193Z,98128.02
2023-09-18T06:13:07.607Z,98127.21
2023-09-18T06:15:35.922Z,98127.79
2023-09-18T06:18:04.863Z,98133.59
2023-09-18T06:20:33.626Z,98129.02
2023-09-18T06:23:01.856Z,98123.23
2023-09-18T06:25:30.303Z,98119.73
2023-09-18T06:27:59.568Z,98121.22
2023-09-18T06:30:28.060Z,98118.69
2023-09-18T06:32:56.390Z,98119.58
2023-09-18T06:35:25.351Z,98119.56
2023-09-18T06:37:56.266Z,98121.52
2023-09-18T06:40:24.584Z,98117.23
2023-09-18T06:42:55.795Z,98117.64
2023-09-18T06:45:24.025Z,98118.03
2023-09-18T06:47:52.447Z,98114.52
2023-09-18T06:50:20.835Z,98116.25
2023-09-18T06:52:49.097Z,98116.77
2023-09-18T06:55:18.503Z,98115.36
2023-09-18T06:57:48.898Z,98111.39
2023-09-18T07:00:19.933Z,98112.30
2023-09-18T07:02:48.583Z,98105.50
2023-09-18T07:05:17.005Z,98102.59
2023-09-18T07:07:45.263Z,98103.12
2023-09-18T07:10:13.832Z,98102.85
2023-09-18T07:12:42.113Z,98098.70
2023-09-18T07:15:10.652Z,98095.89
2023-09-18T07:17:39.131Z,98098.61
2023-09-18T07:20:15.837Z,98097.38
2023-09-18T07:22:51.076Z,98100.61
2023-09-18T07:25:19.549Z,98101.60
2023-09-18T07:27:48.094Z,98102.36
2023-09-18T07:30:18.045Z,98101.36
2023-09-18T07:32:47.738Z,98101.67
2023-09-18T07:35:17.384Z,98101.73
2023-09-18T07:37:48.309Z,98099.34
2023-09-18T07:40:19.642Z,98095.10
2023-09-18T07:42:48.226Z,98098.10
2023-09-18T07:45:17.168Z,98090.02
2023-09-18T07:47:45.740Z,98085.02
2023-09-18T07:50:14.397Z,98083.60
2023-09-18T07:52:42.793Z,98083.37
2023-09-18T07:55:11.286Z,98078.64
2023-09-18T07:57:39.674Z,98071.91
2023-09-18T08:00:13.585Z,98069.85
2023-09-18T08:02:42.579Z,98066.06
2023-09-18T08:05:11.811Z,98063.35
2023-09-18T08:07:41.619Z,98055.92
2023-09-18T08:10:10.633Z,98051.88
2023-09-18T08:12:39.018Z,98049.80
2023-09-18T08:15:07.983Z,98048.59
2023-09-18T08:17:36.666Z,98048.39
2023-09-18T08:20:12.060Z,98043.33
2023-09-18T08:22:41.111Z,98036.23
2023-09-18T08:25:12.236Z,98031.63
2023-09-18T08:27:45.661Z,98029.91
2023-09-18T08:30:15.802Z,98031.85
2023-09-18T08:32:45.036Z,98029.65
2023-09-18T08:35:13.746Z,98032.17
2023-09-18T08:37:43.327Z,98028.09
2023-09-18T08:40:15.372Z,98023.44
2023-09-18T08:42:49.065Z,98020.55
2023-09-18T08:45:54.612Z,98023.96
2023-09-18T08:48:23.291Z,98019.98
2023-09-18T08:50:52.814Z,98014.77
2023-09-18T08:53:21.373Z,98017.02
2023-09-18T08:55:49.904Z,98018.98
2023-09-18T08:58:20.822Z,98013.02
2023-09-18T09:00:49.291Z,98012.47
2023-09-18T09:03:18.405Z,98011.70
2023-09-18T09:05:46.813Z,98012.14
2023-09-18T09:08:16.290Z,98010.33
2023-09-18T09:10:45.071Z,98009.81
2023-09-18T09:13:23.845Z,98010.20
2023-09-18T09:16:03.479Z,98008.31
2023-09-18T09:18:33.079Z,98006.08
2023-09-18T09:21:06.508Z,97999.93
2023-09-18T09:23:55.126Z,97999.24
2023-09-18T09:26:24.444Z,97997.23
2023-09-18T09:28:53.865Z,98002.65
2023-09-18T09:31:29.521Z,97995.35
2023-09-18T09:33:59.597Z,97991.44
2023-09-18T09:36:27.963Z,97989.78
2023-09-18T09:39:00.135Z,97992.17
2023-09-18T09:41:29.903Z,97988.47
2023-09-18T09:43:59.622Z,97988.73
2023-09-18T09:46:28.962Z,97988.52
2023-09-18T09:49:07.948Z,97983.98
2023-09-18T09:51:36.789Z,97985.33
2023-09-18T09:54:05.513Z,97980.41
2023-09-18T09:56:55.415Z,97974.64
2023-09-18T09:59:26.008Z,97973.61
2023-09-18T10:01:55.163Z,97970.52
2023-09-18T10:04:25.601Z,97963.13
2023-09-18T10:07:06.983Z,97958.19
2023-09-18T10:09:42.492Z,97954.41
2023-09-18T10:12:21.765Z,97952.00
2023-09-18T10:15:01.445Z,97950.92
2023-09-18T10:17:33.135Z,97947.86
2023-09-18T10:20:18.034Z,97943.54
2023-09-18T10:22:51.300Z,97943.63
2023-09-18T10:25:25.277Z,97945.61
2023-09-18T10:28:03.021Z,97938.34
2023-09-18T10:30:34.156Z,97932.99
2023-09-18T10:33:02.894Z,97931.01
2023-09-18T10:35:31.860Z,97927.35
2023-09-18T10:38:02.337Z,97921.67
2023-09-18T10:40:32.747Z,97920.31
2023-09-18T10:43:06.400Z,97919.95
2023-09-18T10:45:35.077Z,97922.38
2023-09-18T10:48:04.121Z,97913.61
2023-09-18T10:50:32.426Z,97915.39
2023-09-18T10:53:00.861Z,97916.00
2023-09-18T10:55:29.481Z,97912.83
2023-09-18T10:57:59.652Z,97909.79
2023-09-18T11:00:30.154Z,97905.60
2023-09-18T11:03:31.149Z,97905.15
2023-09-18T11:06:15.465Z,97905.07
2023-09-18T11:08:55.042Z,97898.90
2023-09-18T11:11:27.115Z,97895.73
2023-09-18T11:13:55.514Z,97896.42
2023-09-18T11:16:29.861Z,97898.76
2023-09-18T11:19:05.386Z,97897.48
2023-09-18T11:21:35.660Z,97896.69
2023-09-18T11:24:05.501Z,97892.94
2023-09-18T11:26:38.495Z,97888.35
2023-09-18T11:29:10.643Z,97887.37
2023-09-18T11:31:55.541Z,97883.09
2023-09-18T11:34:27.851Z,97882.41
2023-09-18T11:36:57.255Z,97878.72
2023-09-18T11:39:42.131Z,97874.39
2023-09-18T11:42:23.692Z,97871.55
2023-09-18T11:44:52.311Z,97866.91
2023-09-18T11:47:25.811Z,97867.39
2023-09-18T11:49:59.631Z,97868.95
2023-09-18T11:52:30.225Z,97865.52
2023-09-18T11:55:01.384Z,97865.66
2023-09-18T11:57:32.459Z,97866.85
2023-09-18T12:00:13.148Z,97865.04
2023-09-18T12:02:46.994Z,97860.07
2023-09-18T12:05:16.613Z,97856.20
2023-09-18T12:07:46.850Z,97851.36
2023-09-18T12:10:18.552Z,97847.35
2023-09-18T12:12:47.099Z,97843.52
2023-09-18T12:15:18.297Z,97835.69
2023-09-18T12:17:47.570Z,97832.02
2023-09-18T12:20:20.218Z,97826.89
2023-09-18T12:22:52.413Z,97826.02
2023-09-18T12:25:21.084Z,97829.60
2023-09-18T12:27:53.938Z,97826.69
2023-09-18T12:30:24.542Z,97826.18
2023-09-18T12:32:54.889Z,97822.44
2023-09-18T12:35:24.561Z,97820.13
2023-09-18T12:37:53.361Z,97822.57
2023-09-18T12:40:29.787Z,97816.90
2023-09-18T12:43:02.498Z,97811.77
2023-09-18T12:45:31.214Z,97809.11
2023-09-18T12:48:00.921Z,97807.95
2023-09-18T12:50:29.273Z,97808.51
2023-09-18T12:53:11.893Z,97803.70
2023-09-18T12:55:41.811Z,97798.91
2023-09-18T12:58:13.321Z,97797.81
2023-09-18T13:00:52.546Z,97795.77
2023-09-18T13:03:20.931Z,97794.02
2023-09-18T13:05:50.650Z,97791.20
2023-09-18T13:08:23.851Z,97786.38
2023-09-18T13:10:52.046Z,97785.27
2023-09-18T13:13:24.570Z,97780.39
2023-09-18T13:15:56.350Z,97772.80
2023-09-18T13:18:31.722Z,97770.38
2023-09-18T13:21:00.362Z,97761.41
2023-09-18T13:23:30.718Z,97763.59
2023-09-18T13:26:06.941Z,97760.73
2023-09-18T13:28:37.405Z,97759.53
2023-09-18T13:31:08.121Z,97757.45
2023-09-18T13:33:41.905Z,97758.86
2023-09-18T13:36:10.509Z,97758.38
2023-09-18T13:38:38.727Z,97754.20
2023-09-18T13:41:07.232Z,97750.79
2023-09-18T13:43:37.360Z,97753.98
2023-09-18T13:46:06.509Z,97754.69
2023-09-18T13:48:35.022Z,97757.34
2023-09-18T13:51:04.792Z,97756.86
2023-09-18T13:53:33.536Z,97754.16
2023-09-18T13:56:01.854Z,97754.04
2023-09-18T13:58:30.261Z,97756.44
2023-09-18T14:00:58.692Z,97749.95
2023-09-18T14:03:27.106Z,97750.92
2023-09-18T14:05:55.548Z,97748.02
2023-09-18T14:08:23.891Z,97745.63
2023-09-18T14:10:52.457Z,97743.36
2023-09-18T14:13:20.953Z,97742.38
2023-09-18T14:15:52.254Z,97741.91
2023-09-18T14:18:21.138Z,97743.81
2023-09-18T14:20:49.546Z,97744.77
2023-09-18T14:23:17.804Z,97738.45
2023-09-18T14:25:45.857Z,97734.02
2023-09-18T14:28:14.884Z,97735.11
2023-09-18T14:30:43.043Z,97730.65
2023-09-18T14:33:12.356Z,97729.45
2023-09-18T14:35:40.814Z,97728.06
2023-09-18T14:38:09.661Z,97726.14
2023-09-18T14:40:38.395Z,97720.80
2023-09-18T14:43:06.852Z,97717.14
2023-09-18T14:45:36.275Z,97717.58
2023-09-18T14:48:04.894Z,97720.31
2023-09-18T14:50:33.224Z,97719.14
2023-09-18T14:53:01.356Z,97719.17
2023-09-18T14:55:29.575Z,97718.44
2023-09-18T14:57:57.851Z,97718.13
2023-09-18T15:00:26.490Z,97714.92
2023-09-18T15:02:55.086Z,97714.63
2023-09-18T15:05:23.451Z,97715.10
2023-09-18T15:07:51.842Z,97718.07
2023-09-18T15:10:19.969Z,97721.67
2023-09-18T15:12:48.116Z,97720.39
2023-09-18T15:15:16.224Z,97718.85
2023-09-18T15:17:44.349Z,97717.41
2023-09-18T15:20:14.305Z,97719.28
2023-09-18T15:22:42.554Z,97715.23
2023-09-18T15:25:12.011Z,97719.61
2023-09-18T15:27:40.290Z,97720.20
2023-09-18T15:30:09.042Z,97723.52
2023-09-18T15:32:49.816Z,97723.73
2023-09-18T15:35:18.696Z,97721.70
2023-09-18T15:37:46.969Z,97722.09
2023-09-18T15:40:17.239Z,97724.36
2023-09-18T15:42:45.975Z,97721.05
2023-09-18T15:45:14.377Z,97717.36
2023-09-18T15:47:45.929Z,97713.79
2023-09-18T15:50:14.973Z,97711.86
2023-09-18T15:52:43.465Z,97711.61
2023-09-18T15:55:12.260Z,97708.66
2023-09-18T15:57:41.922Z,97705.33
2023-09-18T16:00:11.842Z,97704.96
2023-09-18T16:02:44.863Z,97700.80
2023-09-18T16:05:14.078Z,97700.59
2023-09-18T16:07:43.157Z,97699.19
2023-09-18T16:10:11.847Z,97695.13
2023-09-18T16:12:40.167Z,97696.85
2023-09-18T16:15:09.187Z,97698.57
2023-09-18T16:17:37.643Z,97694.14
2023-09-18T16:20:07.667Z,97697.64
2023-09-18T16:22:36.199Z,97694.23
2023-09-18T16:25:04.887Z,97688.05
2023-09-18T16:27:33.261Z,97693.54
2023-09-18T16:30:01.644Z,97693.42
2023-09-18T16:32:30.654Z,97692.80
2023-09-18T16:34:59.332Z,97693.56
2023-09-18T16:37:27.876Z,97691.84
2023-09-18T16:39:56.004Z,97693.54
2023-09-18T16:42:24.377Z,97693.80
2023-09-18T16:44:52.564Z,97691.48
2023-09-18T16:47:22.532Z,97689.21
2023-09-18T16:49:50.830Z,97690.05
2023-09-18T16:52:20.578Z,97694.70
2023-09-18T16:54:50.390Z,97693.72
2023-09-18T16:57:19.238Z,97696.05
2023-09-18T16:59:47.364Z,97695.54
2023-09-18T17:02:15.582Z,97694.70
2023-09-18T17:04:51.170Z,97692.73
2023-09-18T17:07:19.825Z,97692.98
2023-09-18T17:09:48.390Z,97690.77
2023-09-18T17:12:16.652Z,97688.22
2023-09-18T17:14:44.861Z,97686.23
2023-09-18T17:17:13.064Z,97690.40
2023-09-18T17:19:41.919Z,97690.81
2023-09-18T17:22:10.003Z,97691.14
2023-09-18T17:24:39.241Z,97693.65
2023-09-18T17:27:10.069Z,97697.64
2023-09-18T17:29:38.134Z,97706.15
2023-09-18T17:32:06.207Z,97699.73
2023-09-18T17:34:34.218Z,97711.39
2023-09-18T17:37:02.227Z,97709.61
2023-09-18T17:39:30.339Z,97714.58
2023-09-18T17:41:58.582Z,97715.81
2023-09-18T17:44:26.746Z,97723.91
2023-09-18T17:46:54.767Z,97722.01
2023-09-18T17:49:25.951Z,97707.30
2023-09-18T17:51:54.124Z,97716.52
2023-09-18T17:54:22.649Z,97711.63
2023-09-18T17:56:50.798Z,97697.14
2023-09-18T17:59:19.031Z,97703.80
2023-09-18T18:01:47.285Z,97710.17
2023-09-18T18:04:15.822Z,97702.54
2023-09-18T18:06:46.990Z,97697.50
2023-09-18T18:09:15.346Z,97697.05
2023-09-18T18:11:43.356Z,97696.30
2023-09-18T18:14:12.101Z,97700.36
2023-09-18T18:16:40.141Z,97700.25
2023-09-18T18:19:08.362Z,97694.15
2023-09-18T18:21:36.458Z,97703.39
2023-09-18T18:24:05.389Z,97704.84
2023-09-18T18:26:35.643Z,97706.23
2023-09-18T18:29:05.169Z,97704.80
2023-09-18T18:31:33.787Z,97705.02
2023-09-18T18:34:02.302Z,97701.14
2023-09-18T18:36:31.702Z,97701.89
2023-09-18T18:39:00.807Z,97702.91
2023-09-18T18:41:30.183Z,97694.79
2023-09-18T18:43:58.478Z,97692.32
2023-09-18T18:46:28.447Z,97689.45
2023-09-18T18:48:56.563Z,97691.88
2023-09-18T18:51:26.410Z,97693.05
2023-09-18T18:53:55.299Z,97697.33
2023-09-18T18:56:23.531Z,97693.07
2023-09-18T18:58:51.662Z,97686.74
2023-09-18T19:01:24.754Z,97686.79
2023-09-18T19:03:54.961Z,97683.02
2023-09-18T19:06:23.609Z,97687.86
2023-09-18T19:08:52.001Z,97686.46
2023-09-18T19:11:21.050Z,97684.78
2023-09-18T19:13:49.209Z,97684.45
2023-09-18T19:16:17.368Z,97686.53
2023-09-18T19:18:45.674Z,97687.92
2023-09-18T19:21:13.752Z,97691.19
2023-09-18T19:23:44.112Z,97688.86
2023-09-18T19:26:12.764Z,97686.27
2023-09-18T19:28:40.969Z,97690.23
2023-09-18T19:31:09.944Z,97691.52
2023-09-18T19:33:41.970Z,97687.08
2023-09-18T19:36:10.278Z,97689.80
2023-09-18T19:38:38.570Z,97698.83
2023-09-18T19:41:07.262Z,97694.98
2023-09-18T19:43:35.607Z,97702.08
2023-09-18T19:46:04.069Z,97698.23
2023-09-18T19:48:32.704Z,97690.89
2023-09-18T19:51:02.582Z,97694.24
2023-09-18T19:53:30.944Z,97687.77
2023-09-18T19:55:59.090Z,97696.25
2023-09-18T19:58:27.332Z,97700.40
2023-09-18T20:00:55.532Z,97702.06
2023-09-18T20:03:24.773Z,97700.64
2023-09-18T20:05:53.106Z,97697.64
2023-09-18T20:08:21.353Z,97694.11
2023-09-18T20:10:49.350Z,97691.35
2023-09-18T20:13:17.452Z,97692.39
2023-09-18T20:15:45.364Z,97695.15
2023-09-18T20:18:14.262Z,97687.73
2023-09-18T20:20:42.717Z,97683.80
2023-09-18T20:23:10.815Z,97686.84
2023-09-18T20:25:40.345Z,97681.48
2023-09-18T20:28:08.641Z,97683.08
2023-09-18T20:30:37.735Z,97687.24
2023-09-18T20:33:05.964Z,97685.16
2023-09-18T20:35:34.318Z,97681.77
2023-09-18T20:38:02.356Z,97682.14
2023-09-18T20:40:30.482Z,97687.33
2023-09-18T20:42:58.584Z,97692.68
2023-09-18T20:45:27.287Z,97694.41
2023-09-18T20:47:55.510Z,97698.67
2023-09-18T20:50:26.736Z,97698.86
2023-09-18T20:52:54.767Z,97699.11
2023-09-18T20:55:22.930Z,97696.88
2023-09-18T20:57:50.961Z,97693.96
2023-09-18T21:00:19.137Z,97691.42
2023-09-18T21:02:48.058Z,97692.97
2023-09-18T21:05:17.989Z,97692.48
2023-09-18T21:07:46.377Z,97693.50
2023-09-18T21:10:15.294Z,97687.42
2023-09-18T21:12:43.477Z,97689.89
2023-09-18T21:15:11.778Z,97696.55
2023-09-18T21:17:40.079Z,97693.78
2023-09-18T21:20:10.436Z,97691.76
2023-09-18T21:22:40.849Z,97696.30
2023-09-18T21:25:10.689Z,97695.23
2023-09-18T21:27:39.063Z,97699.83
2023-09-18T21:30:09.162Z,97701.88
2023-09-18T21:32:38.605Z,97703.45
2023-09-18T21:35:07.337Z,97704.18
2023-09-18T21:37:35.520Z,97701.41
2023-09-18T21:40:05.060Z,97698.12
2023-09-18T21:42:33.070Z,97698.38
2023-09-18T21:45:01.364Z,97702.84
2023-09-18T21:47:29.803Z,97706.63
2023-09-18T21:49:58.719Z,97708.80
2023-09-18T21:52:26.903Z,97705.99
2023-09-18T21:54:54.950Z,97702.52
2023-09-18T21:57:23.054Z,97705.41
2023-09-18T21:59:51.184Z,97705.94
2023-09-18T22:02:19.275Z,97702.02
2023-09-18T22:04:47.402Z,97700.63
2023-09-18T22:07:15.481Z,97705.39
2023-09-18T22:09:47.847Z,97711.02
2023-09-18T22:12:15.917Z,97712.84
2023-09-18T22:14:44.769Z,97713.63
2023-09-18T22:17:13.045Z,97711.92
2023-09-18T22:19:41.122Z,97716.29
2023-09-18T22:22:10.983Z,97719.05
2023-09-18T22:24:38.996Z,97716.59
2023-09-18T22:27:08.838Z,97713.02
2023-09-18T22:29:37.001Z,97713.73
2023-09-18T22:32:05.696Z,97709.29
2023-09-18T22:34:33.981Z,97709.42
2023-09-18T22:37:02.032Z,97706.17
2023-09-18T22:39:33.187Z,97706.97
2023-09-18T22:42:02.225Z,97701.86
2023-09-18T22:45:08.178Z,97704.65
2023-09-18T22:48:14.169Z,97708.04
2023-09-18T22:51:19.926Z,97702.61
2023-09-18T22:53:47.862Z,97692.72
2023-09-18T22:56:17.493Z,97692.29
2023-09-18T22:58:47.957Z,97694.29
2023-09-18T23:01:17.611Z,97697.50
2023-09-18T23:03:48.763Z,97698.44
2023-09-18T23:06:17.493Z,97698.93
2023-09-18T23:08:45.623Z,97699.73
2023-09-18T23:11:14.068Z,97696.00
2023-09-18T23:13:44.381Z,97693.14
2023-09-18T23:16:13.838Z,97693.42
2023-09-18T23:18:42.063Z,97681.95
2023-09-18T23:21:10.711Z,97678.93
2023-09-18T23:23:38.945Z,97680.42
2023-09-18T23:26:09.744Z,97683.52
2023-09-18T23:28:38.430Z,97684.05
2023-09-18T23:31:07.843Z,97680.95
2023-09-18T23:33:36.093Z,97679.60
2023-09-18T23:36:04.413Z,97685.26
2023-09-18T23:38:32.639Z,97685.02
2023-09-18T23:41:01.497Z,97684.84
2023-09-18T23:43:29.887Z,97684.88
2023-09-18T23:45:59.761Z,97678.91
2023-09-18T23:48:28.016Z,97683.30
2023-09-18T23:51:00.412Z,97686.81
2023-09-18T23:53:29.947Z,97687.13
2023-09-18T23:56:01.166Z,97681.69
2023-09-18T23:58:30.578Z,97680.96
